createdAt,value
2022-08-04T00:02:15.691Z,93909.97
2022-08-04T00:04:48.327Z,93915.47
2022-08-04T00:07:44.212Z,93889.31
2022-08-04T00:10:11.191Z,93889.78
2022-08-04T00:12:43.394Z,93895.13
2022-08-04T00:15:15.577Z,93894.59
2022-08-04T00:17:54.178Z,93913.91
2022-08-04T00:20:21.473Z,93896.66
2022-08-04T00:22:48.866Z,93898.72
2022-08-04T00:25:16.428Z,93912.59
2022-08-04T00:27:43.601Z,93907.00
2022-08-04T00:30:10.375Z,93897.41
2022-08-04T00:32:43.702Z,93904.94
2022-08-04T00:35:14.076Z,93888.84
2022-08-04T00:37:43.848Z,93920.78
2022-08-04T00:40:18.638Z,93901.28
2022-08-04T00:42:59.202Z,93920.78
2022-08-04T00:45:35.694Z,93925.25
2022-08-04T00:48:48.915Z,93923.31
2022-08-04T00:52:31.806Z,93921.66
2022-08-04T00:55:06.964Z,93897.22
2022-08-04T00:58:00.325Z,93926.53
2022-08-04T01:00:28.227Z,93883.72
2022-08-04T01:03:32.340Z,93920.13
2022-08-04T01:06:34.536Z,93921.38
2022-08-04T01:09:21.553Z,93899.63
2022-08-04T01:12:08.107Z,93917.22
2022-08-04T01:14:59.624Z,93920.16
2022-08-04T01:18:04.018Z,93894.53
2022-08-04T01:20:54.129Z,93895.94
2022-08-04T01:23:59.000Z,93917.88
2022-08-04T01:26:43.700Z,93924.13
2022-08-04T01:29:16.258Z,93916.75
2022-08-04T01:31:48.786Z,93918.94
2022-08-04T01:34:16.512Z,93901.41
2022-08-04T01:37:10.588Z,93920.44
2022-08-04T01:39:44.629Z,93877.84
2022-08-04T01:42:12.647Z,93911.41
2022-08-04T01:44:51.276Z,93876.16
2022-08-04T01:47:21.384Z,93903.63
2022-08-04T01:49:50.290Z,93915.41
2022-08-04T01:52:18.516Z,93906.94
2022-08-04T01:54:46.874Z,93883.34
2022-08-04T01:57:37.978Z,93872.59
2022-08-04T02:00:05.871Z,93913.59
2022-08-04T02:02:33.686Z,93905.25
2022-08-04T02:05:00.176Z,93914.53
2022-08-04T02:07:51.366Z,93893.22
2022-08-04T02:10:42.760Z,93920.94
2022-08-04T02:13:15.276Z,93931.25
2022-08-04T02:16:05.107Z,93924.78
2022-08-04T02:18:44.514Z,93888.16
2022-08-04T02:21:15.856Z,93881.88
2022-08-04T02:23:45.937Z,93902.16
2022-08-04T02:26:22.165Z,93912.94
2022-08-04T02:29:03.677Z,93915.69
2022-08-04T02:31:44.259Z,93914.84
2022-08-04T02:34:28.010Z,93903.75
2022-08-04T02:36:55.694Z,93911.78
2022-08-04T02:39:23.607Z,93915.88
2022-08-04T02:41:52.959Z,93889.34
2022-08-04T02:44:23.683Z,93903.09
2022-08-04T02:46:53.014Z,93906.44
2022-08-04T02:49:22.251Z,93886.38
2022-08-04T02:51:54.683Z,93909.84
2022-08-04T02:54:41.035Z,93903.69
2022-08-04T02:57:11.360Z,93878.72
2022-08-04T02:59:57.101Z,93912.38
2022-08-04T03:02:34.692Z,93901.38
2022-08-04T03:05:07.357Z,93899.91
2022-08-04T03:08:21.979Z,93907.91
2022-08-04T03:11:20.212Z,93907.81
2022-08-04T03:13:53.560Z,93905.16
2022-08-04T03:16:33.453Z,93898.75
2022-08-04T03:19:04.932Z,93899.66
2022-08-04T03:22:08.339Z,93882.47
2022-08-04T03:25:00.023Z,93872.38
2022-08-04T03:28:06.083Z,93879.16
2022-08-04T03:30:59.456Z,93902.88
2022-08-04T03:33:46.172Z,93900.09
2022-08-04T03:36:15.688Z,93900.59
2022-08-04T03:39:20.622Z,93892.16
2022-08-04T03:42:08.055Z,93910.38
2022-08-04T03:44:53.677Z,93912.38
2022-08-04T03:47:53.543Z,93902.38
2022-08-04T03:50:25.764Z,93911.28
2022-08-04T03:53:08.887Z,93907.28
2022-08-04T03:55:46.572Z,93908.88
2022-08-04T03:58:46.744Z,93896.41
2022-08-04T04:01:19.272Z,93904.44
2022-08-04T04:04:14.406Z,93904.25
2022-08-04T04:06:55.669Z,93893.44
2022-08-04T04:09:57.016Z,93873.03
2022-08-04T04:12:42.121Z,93900.44
2022-08-04T04:15:39.573Z,93896.22
2022-08-04T04:18:42.418Z,93901.50
2022-08-04T04:21:18.153Z,93903.22
2022-08-04T04:23:56.737Z,93904.81
2022-08-04T04:26:46.750Z,93901.72
2022-08-04T04:29:37.453Z,93895.22
2022-08-04T04:32:34.507Z,93899.19
2022-08-04T04:35:26.882Z,93899.53
2022-08-04T04:38:30.577Z,93897.38
2022-08-04T04:41:12.496Z,93897.38
2022-08-04T04:43:56.828Z,93907.69
2022-08-04T04:46:54.466Z,93909.97
2022-08-04T04:49:34.897Z,93897.84
2022-08-04T04:52:13.245Z,93907.22
2022-08-04T04:54:45.672Z,93889.09
2022-08-04T04:57:20.219Z,93908.66
2022-08-04T05:00:10.329Z,93908.16
2022-08-04T05:02:43.493Z,93918.47
2022-08-04T05:05:15.555Z,93912.00
2022-08-04T05:07:58.473Z,93911.44
2022-08-04T05:10:46.693Z,93915.31
2022-08-04T05:14:34.683Z,93916.00
2022-08-04T05:16:30.982Z,93918.25
2022-08-04T05:19:16.087Z,93913.16
2022-08-04T05:21:48.143Z,93906.25
2022-08-04T05:24:19.237Z,93890.41
2022-08-04T05:26:50.191Z,93894.91
2022-08-04T05:29:31.774Z,93871.53
2022-08-04T05:32:01.787Z,93909.75
2022-08-04T05:34:31.819Z,93899.09
2022-08-04T05:37:01.719Z,93885.16
2022-08-04T05:39:38.929Z,93892.47
2022-08-04T05:42:06.556Z,93908.56
2022-08-04T05:44:34.891Z,93907.06
2022-08-04T05:47:04.248Z,93917.28
2022-08-04T05:49:32.748Z,93892.28
2022-08-04T05:52:01.854Z,93877.53
2022-08-04T05:54:31.385Z,93890.94
2022-08-04T05:56:59.046Z,93888.91
2022-08-04T05:59:26.746Z,93894.66
2022-08-04T06:01:57.095Z,93911.53
2022-08-04T06:04:30.828Z,93906.44
2022-08-04T06:06:57.477Z,93901.13
2022-08-04T06:09:24.267Z,93899.59
2022-08-04T06:12:03.071Z,93867.00
2022-08-04T06:14:59.720Z,93896.75
2022-08-04T06:19:57.671Z,93881.91
2022-08-04T06:20:22.826Z,93871.94
2022-08-04T06:22:54.528Z,93902.97
2022-08-04T06:25:25.252Z,93872.47
2022-08-04T06:27:53.388Z,93873.81
2022-08-04T06:30:20.947Z,93888.34
2022-08-04T06:33:03.394Z,93876.69
2022-08-04T06:35:35.523Z,93881.78
2022-08-04T06:38:11.589Z,93895.19
2022-08-04T06:40:40.683Z,93886.16
2022-08-04T06:43:08.486Z,93888.56
2022-08-04T06:45:39.834Z,93869.44
2022-08-04T06:48:09.107Z,93892.09
2022-08-04T06:51:25.591Z,93900.31
2022-08-04T06:53:35.954Z,93881.19
2022-08-04T06:56:03.015Z,93894.16
2022-08-04T06:58:32.090Z,93882.75
2022-08-04T07:01:02.735Z,93868.91
2022-08-04T07:03:31.026Z,93905.56
2022-08-04T07:05:58.040Z,93873.41
2022-08-04T07:08:27.237Z,93868.28
2022-08-04T07:10:54.845Z,93898.31
2022-08-04T07:13:27.848Z,93894.69
2022-08-04T07:15:55.940Z,93892.56
2022-08-04T07:18:22.527Z,93897.06
2022-08-04T07:20:49.519Z,93885.25
2022-08-04T07:23:21.624Z,93898.25
2022-08-04T07:26:00.496Z,93881.63
2022-08-04T07:28:46.506Z,93885.22
2022-08-04T07:31:33.563Z,93894.28
2022-08-04T07:34:20.626Z,93867.53
2022-08-04T07:36:55.628Z,93901.44
2022-08-04T07:39:27.270Z,93891.63
2022-08-04T07:41:55.942Z,93910.03
2022-08-04T07:44:22.414Z,93891.84
2022-08-04T07:46:48.955Z,93899.13
2022-08-04T07:49:54.351Z,93886.38
2022-08-04T07:52:02.159Z,93921.41
2022-08-04T07:54:29.311Z,93892.78
2022-08-04T07:56:57.486Z,93878.16
2022-08-04T07:59:24.777Z,93877.66
2022-08-04T08:01:52.013Z,93882.88
2022-08-04T08:04:18.948Z,93899.16
2022-08-04T08:06:45.639Z,93877.38
2022-08-04T08:09:18.785Z,93890.69
2022-08-04T08:12:37.065Z,93885.19
2022-08-04T08:14:36.344Z,93891.16
2022-08-04T08:17:03.653Z,93885.81
2022-08-04T08:19:34.759Z,93879.28
2022-08-04T08:22:02.198Z,93892.94
2022-08-04T08:24:31.077Z,93862.09
2022-08-04T08:26:58.865Z,93892.53
2022-08-04T08:29:26.258Z,93874.59
2022-08-04T08:31:56.454Z,93871.69
2022-08-04T08:34:28.803Z,93890.34
2022-08-04T08:37:04.760Z,93875.06
2022-08-04T08:39:59.588Z,93889.50
2022-08-04T08:42:34.758Z,93871.84
2022-08-04T08:45:12.275Z,93864.41
2022-08-04T08:48:11.007Z,93887.19
2022-08-04T08:50:53.255Z,93884.94
2022-08-04T08:53:38.386Z,93886.66
2022-08-04T08:56:31.173Z,93882.63
2022-08-04T08:59:01.005Z,93886.97
2022-08-04T09:01:48.981Z,93895.53
2022-08-04T09:04:38.083Z,93883.81
2022-08-04T09:07:15.639Z,93899.94
2022-08-04T09:10:09.877Z,93893.94
2022-08-04T09:12:39.300Z,93892.63
2022-08-04T09:15:13.855Z,93886.81
2022-08-04T09:17:50.051Z,93883.69
2022-08-04T09:20:21.466Z,93893.91
2022-08-04T09:23:06.946Z,93869.06
2022-08-04T09:25:56.708Z,93899.66
2022-08-04T09:28:52.877Z,93894.63
2022-08-04T09:31:20.892Z,93885.31
2022-08-04T09:34:04.460Z,93877.88
2022-08-04T09:36:45.425Z,93899.09
2022-08-04T09:39:24.562Z,93885.94
2022-08-04T09:42:04.048Z,93895.97
2022-08-04T09:44:55.286Z,93904.34
2022-08-04T09:47:40.123Z,93902.59
2022-08-04T09:50:32.114Z,93898.13
2022-08-04T09:53:13.746Z,93906.84
2022-08-04T09:56:18.932Z,93902.88
2022-08-04T09:59:01.507Z,93880.72
2022-08-04T10:01:30.480Z,93885.06
2022-08-04T10:04:01.730Z,93893.84
2022-08-04T10:06:59.961Z,93892.00
2022-08-04T10:09:47.713Z,93870.78
2022-08-04T10:12:26.440Z,93885.66
2022-08-04T10:15:03.489Z,93889.63
2022-08-04T10:18:04.331Z,93884.88
2022-08-04T10:21:10.180Z,93888.16
2022-08-04T10:24:21.853Z,93865.88
2022-08-04T10:26:58.112Z,93876.69
2022-08-04T10:29:31.055Z,93866.16
2022-08-04T10:32:21.444Z,93865.13
2022-08-04T10:35:14.075Z,93883.31
2022-08-04T10:38:01.497Z,93873.69
2022-08-04T10:40:49.229Z,93867.47
2022-08-04T10:43:42.848Z,93880.09
2022-08-04T10:46:30.149Z,93862.13
2022-08-04T10:49:00.048Z,93883.47
2022-08-04T10:51:58.513Z,93885.47
2022-08-04T10:54:47.422Z,93872.09
2022-08-04T10:57:27.116Z,93858.44
2022-08-04T10:59:59.080Z,93883.78
2022-08-04T11:02:58.478Z,93864.31
2022-08-04T11:05:29.228Z,93874.25
2022-08-04T11:08:11.493Z,93875.38
2022-08-04T11:11:05.862Z,93870.69
2022-08-04T11:13:45.039Z,93875.09
2022-08-04T11:16:19.578Z,93867.75
2022-08-04T11:19:04.397Z,93865.91
2022-08-04T11:21:39.695Z,93857.13
2022-08-04T11:24:22.765Z,93863.03
2022-08-04T11:27:07.038Z,93845.00
2022-08-04T11:29:45.689Z,93868.88
2022-08-04T11:32:31.161Z,93830.53
2022-08-04T11:35:04.073Z,93875.09
2022-08-04T11:37:46.831Z,93850.19
2022-08-04T11:40:32.897Z,93828.34
2022-08-04T11:43:08.477Z,93849.66
2022-08-04T11:45:40.811Z,93871.53
2022-08-04T11:48:13.197Z,93856.19
2022-08-04T11:50:53.971Z,93848.78
2022-08-04T11:53:39.890Z,93825.13
2022-08-04T11:56:12.658Z,93845.38
2022-08-04T11:58:50.225Z,93838.66
2022-08-04T12:01:31.477Z,93862.13
2022-08-04T12:04:35.538Z,93865.50
2022-08-04T12:07:53.265Z,93850.41
2022-08-04T12:10:45.512Z,93857.41
2022-08-04T12:13:28.015Z,93858.03
2022-08-04T12:16:12.654Z,93852.41
2022-08-04T12:19:16.782Z,93860.97
2022-08-04T12:21:53.438Z,93844.50
2022-08-04T12:24:31.091Z,93844.31
2022-08-04T12:27:04.673Z,93846.53
2022-08-04T12:30:56.345Z,93853.09
2022-08-04T12:32:53.607Z,93846.91
2022-08-04T12:35:58.153Z,93829.88
2022-08-04T12:38:34.635Z,93827.41
2022-08-04T12:41:04.951Z,93802.47
2022-08-04T12:43:47.016Z,93822.56
2022-08-04T12:46:22.159Z,93828.75
2022-08-04T12:48:51.354Z,93838.91
2022-08-04T12:52:06.555Z,93824.72
2022-08-04T12:54:08.643Z,93838.78
2022-08-04T12:56:35.769Z,93822.38
2022-08-04T12:59:12.622Z,93814.69
2022-08-04T13:02:07.338Z,93821.09
2022-08-04T13:04:42.555Z,93820.59
2022-08-04T13:07:19.472Z,93837.44
2022-08-04T13:09:47.127Z,93802.09
2022-08-04T13:12:16.773Z,93808.41
2022-08-04T13:14:44.802Z,93828.69
2022-08-04T13:17:12.599Z,93827.13
2022-08-04T13:19:45.124Z,93804.09
2022-08-04T13:22:16.225Z,93827.03
2022-08-04T13:24:56.534Z,93792.63
2022-08-04T13:27:43.293Z,93801.22
2022-08-04T13:30:31.268Z,93821.78
2022-08-04T13:33:00.952Z,93785.88
2022-08-04T13:35:54.758Z,93818.16
2022-08-04T13:38:25.562Z,93803.78
2022-08-04T13:40:52.640Z,93809.00
2022-08-04T13:44:16.266Z,93783.88
2022-08-04T13:46:33.964Z,93805.78
2022-08-04T13:52:10.910Z,93779.19
2022-08-04T13:54:45.834Z,93773.53
2022-08-04T13:57:31.207Z,93773.78
2022-08-04T14:00:02.793Z,93768.94
2022-08-04T14:02:47.829Z,93791.19
2022-08-04T14:05:33.914Z,93797.84
2022-08-04T14:08:05.998Z,93795.72
2022-08-04T14:10:33.722Z,93797.00
2022-08-04T14:13:03.346Z,93774.88
2022-08-04T14:16:01.939Z,93785.47
2022-08-04T14:18:26.549Z,93785.69
2022-08-04T14:21:00.133Z,93790.03
2022-08-04T14:23:31.796Z,93774.63
2022-08-04T14:25:59.914Z,93778.13
2022-08-04T14:28:47.014Z,93781.09
2022-08-04T14:31:21.917Z,93749.41
2022-08-04T14:34:01.063Z,93757.06
2022-08-04T14:37:13.328Z,93762.31
2022-08-04T14:40:19.329Z,93772.63
2022-08-04T14:42:55.451Z,93772.81
2022-08-04T14:45:54.042Z,93733.28
2022-08-04T14:48:21.907Z,93751.78
2022-08-04T14:50:49.497Z,93761.06
2022-08-04T14:53:17.739Z,93755.50
2022-08-04T14:55:49.600Z,93765.47
2022-08-04T14:58:34.215Z,93764.91
2022-08-04T15:01:11.015Z,93748.47
2022-08-04T15:03:50.697Z,93751.41
2022-08-04T15:06:26.219Z,93743.56
2022-08-04T15:08:54.931Z,93758.78
2022-08-04T15:11:23.920Z,93738.56
2022-08-04T15:13:55.105Z,93742.09
2022-08-04T15:16:22.944Z,93754.06
2022-08-04T15:19:00.884Z,93750.84
2022-08-04T15:21:28.989Z,93741.31
2022-08-04T15:23:59.226Z,93740.22
2022-08-04T15:26:32.105Z,93744.75
2022-08-04T15:29:25.055Z,93743.47
2022-08-04T15:32:04.376Z,93743.22
2022-08-04T15:35:02.507Z,93738.13
2022-08-04T15:37:37.059Z,93711.13
2022-08-04T15:40:14.854Z,93718.94
2022-08-04T15:42:49.615Z,93730.88
2022-08-04T15:46:02.936Z,93717.78
2022-08-04T15:48:13.628Z,93730.22
2022-08-04T15:50:55.305Z,93725.25
2022-08-04T15:53:23.002Z,93709.38
2022-08-04T15:55:49.817Z,93717.69
2022-08-04T15:58:20.359Z,93706.13
2022-08-04T16:00:49.838Z,93727.22
2022-08-04T16:03:59.214Z,93711.97
2022-08-04T16:06:20.874Z,93713.28
2022-08-04T16:08:57.954Z,93720.78
2022-08-04T16:11:30.919Z,93719.41
2022-08-04T16:14:01.613Z,93712.69
2022-08-04T16:16:32.933Z,93718.13
2022-08-04T16:19:10.053Z,93710.53
2022-08-04T16:21:50.610Z,93698.94
2022-08-04T16:24:36.299Z,93715.38
2022-08-04T16:27:04.833Z,93719.09
2022-08-04T16:29:40.681Z,93715.69
2022-08-04T16:32:13.261Z,93704.72
2022-08-04T16:34:59.928Z,93682.50
2022-08-04T16:37:35.553Z,93690.53
2022-08-04T16:40:37.631Z,93708.72
2022-08-04T16:43:11.339Z,93686.78
2022-08-04T16:46:03.951Z,93704.72
2022-08-04T16:48:35.617Z,93693.13
2022-08-04T16:51:07.959Z,93681.75
2022-08-04T16:53:53.038Z,93702.09
2022-08-04T16:56:29.869Z,93697.81
2022-08-04T16:58:56.697Z,93693.66
2022-08-04T17:01:33.770Z,93701.56
2022-08-04T17:04:05.247Z,93705.53
2022-08-04T17:06:37.020Z,93678.63
2022-08-04T17:09:12.145Z,93699.66
2022-08-04T17:11:38.726Z,93675.00
2022-08-04T17:14:06.438Z,93694.97
2022-08-04T17:16:36.203Z,93697.72
2022-08-04T17:19:03.669Z,93683.59
2022-08-04T17:21:32.450Z,93704.41
2022-08-04T17:24:14.185Z,93700.38
2022-08-04T17:26:54.269Z,93692.50
2022-08-04T17:29:44.956Z,93703.00
2022-08-04T17:32:20.761Z,93688.47
2022-08-04T17:35:02.069Z,93684.94
2022-08-04T17:37:39.249Z,93692.53
2022-08-04T17:40:13.360Z,93683.16
2022-08-04T17:42:41.514Z,93663.59
2022-08-04T17:48:00.287Z,93696.69
2022-08-04T17:50:31.262Z,93702.94
2022-08-04T17:53:02.229Z,93701.09
2022-08-04T17:55:44.635Z,93684.91
2022-08-04T17:58:22.321Z,93701.38
2022-08-04T18:03:51.515Z,93671.66
2022-08-04T18:06:20.487Z,93666.94
2022-08-04T18:08:54.775Z,93669.31
2022-08-04T18:11:25.022Z,93673.28
2022-08-04T18:13:57.104Z,93668.16
2022-08-04T18:16:24.138Z,93687.94
2022-08-04T18:19:11.067Z,93704.41
2022-08-04T18:21:45.487Z,93687.69
2022-08-04T18:24:28.513Z,93674.84
2022-08-04T18:27:01.413Z,93706.94
2022-08-04T18:29:31.941Z,93710.41
2022-08-04T18:31:58.598Z,93678.63
2022-08-04T18:34:54.422Z,93632.97
2022-08-04T18:38:03.156Z,93702.19
2022-08-04T18:40:10.690Z,93715.69
2022-08-04T18:42:52.697Z,93686.72
2022-08-04T18:45:19.905Z,93706.47
2022-08-04T18:47:58.290Z,93691.84
2022-08-04T18:50:59.425Z,93690.63
2022-08-04T18:53:13.057Z,93698.81
2022-08-04T18:55:56.756Z,93698.53
2022-08-04T18:58:27.158Z,93722.66
2022-08-04T19:00:55.669Z,93703.25
2022-08-04T19:03:23.068Z,93727.97
2022-08-04T19:05:50.383Z,93743.16
2022-08-04T19:08:34.523Z,93710.41
2022-08-04T19:11:37.258Z,93731.66
2022-08-04T19:14:04.733Z,93725.84
2022-08-04T19:16:32.608Z,93730.13
2022-08-04T19:19:03.325Z,93730.66
2022-08-04T19:22:00.317Z,93690.22
2022-08-04T19:24:31.106Z,93721.72
2022-08-04T19:27:02.294Z,93733.25
2022-08-04T19:29:37.968Z,93759.34
2022-08-04T19:32:15.027Z,93774.03
2022-08-04T19:34:46.482Z,93740.19
2022-08-04T19:37:58.392Z,93742.38
2022-08-04T19:40:09.470Z,93756.44
2022-08-04T19:42:36.896Z,93771.81
2022-08-04T19:45:05.052Z,93780.38
2022-08-04T19:48:16.953Z,93765.63
2022-08-04T19:50:18.226Z,93766.00
2022-08-04T19:52:51.790Z,93755.72
2022-08-04T19:55:22.305Z,93785.81
2022-08-04T19:57:49.699Z,93780.28
2022-08-04T20:00:17.877Z,93782.47
2022-08-04T20:03:00.161Z,93757.63
2022-08-04T20:05:52.459Z,93788.47
2022-08-04T20:08:13.722Z,93787.41
2022-08-04T20:10:51.325Z,93780.97
2022-08-04T20:13:19.825Z,93758.78
2022-08-04T20:18:54.735Z,93750.00
2022-08-04T20:21:53.671Z,93767.34
2022-08-04T20:24:38.909Z,93770.72
2022-08-04T20:27:11.590Z,93786.72
2022-08-04T20:29:48.472Z,93785.25
2022-08-04T20:32:19.478Z,93776.25
2022-08-04T20:34:47.230Z,93793.22
2022-08-04T20:37:15.443Z,93788.00
2022-08-04T20:39:42.196Z,93780.56
2022-08-04T20:42:11.486Z,93795.47
2022-08-04T20:44:55.880Z,93770.03
2022-08-04T20:47:22.564Z,93781.19
2022-08-04T20:49:49.179Z,93780.94
2022-08-04T20:52:20.383Z,93774.81
2022-08-04T20:54:48.691Z,93788.09
2022-08-04T20:57:20.531Z,93774.28
2022-08-04T21:00:02.543Z,93762.59
2022-08-04T21:02:29.374Z,93768.47
2022-08-04T21:04:55.882Z,93764.75
2022-08-04T21:07:24.654Z,93786.03
2022-08-04T21:09:51.768Z,93796.09
2022-08-04T21:12:27.656Z,93796.63
2022-08-04T21:14:57.157Z,93776.44
2022-08-04T21:20:12.976Z,93775.91
2022-08-04T21:22:40.534Z,93776.47
2022-08-04T21:25:08.122Z,93791.31
2022-08-04T21:27:43.373Z,93794.81
2022-08-04T21:30:23.938Z,93786.03
2022-08-04T21:32:50.820Z,93778.06
2022-08-04T21:35:18.682Z,93775.91
2022-08-04T21:40:38.529Z,93767.88
2022-08-04T21:43:05.769Z,93778.53
2022-08-04T21:45:37.829Z,93775.31
2022-08-04T21:48:04.761Z,93787.00
2022-08-04T21:50:31.295Z,93759.34
2022-08-04T21:52:57.737Z,93781.16
2022-08-04T21:55:25.821Z,93782.72
2022-08-04T21:58:12.462Z,93788.03
2022-08-04T22:00:40.575Z,93776.91
2022-08-04T22:03:11.248Z,93760.44
2022-08-04T22:05:55.157Z,93773.44
2022-08-04T22:08:23.450Z,93779.03
2022-08-04T22:10:50.442Z,93793.91
2022-08-04T22:13:22.475Z,93759.88
2022-08-04T22:16:04.482Z,93788.34
2022-08-04T22:18:32.198Z,93794.44
2022-08-04T22:21:04.012Z,93760.13
2022-08-04T22:23:45.088Z,93794.38
2022-08-04T22:26:26.598Z,93803.94
2022-08-04T22:28:54.117Z,93778.41
2022-08-04T22:31:23.768Z,93790.09
2022-08-04T22:33:54.350Z,93802.28
2022-08-04T22:36:22.102Z,93792.72
2022-08-04T22:38:58.008Z,93783.13
2022-08-04T22:41:34.202Z,93777.00
2022-08-04T22:44:16.107Z,93758.09
2022-08-04T22:46:42.772Z,93793.72
2022-08-04T22:49:09.373Z,93770.31
2022-08-04T22:51:36.009Z,93783.09
2022-08-04T22:54:02.495Z,93777.00
2022-08-04T22:56:39.179Z,93761.81
2022-08-04T22:59:11.385Z,93778.81
2022-08-04T23:02:00.145Z,93784.13
2022-08-04T23:04:26.398Z,93776.16
2022-08-04T23:06:54.353Z,93752.72
2022-08-04T23:09:21.566Z,93749.50
2022-08-04T23:11:53.950Z,93750.59
2022-08-04T23:14:29.357Z,93766.03
2022-08-04T23:16:55.806Z,93778.28
2022-08-04T23:19:24.717Z,93745.81
2022-08-04T23:22:01.596Z,93747.41
2022-08-04T23:24:29.638Z,93754.91
2022-08-04T23:26:57.074Z,93774.03
2022-08-04T23:29:23.999Z,93771.94
2022-08-04T23:31:59.358Z,93745.38
2022-08-04T23:34:26.947Z,93766.50
2022-08-04T23:36:55.855Z,93727.75
2022-08-04T23:39:25.837Z,93736.28
2022-08-04T23:42:15.018Z,93724.59
2022-08-04T23:44:48.455Z,93746.97
2022-08-04T23:48:16.658Z,93718.25
2022-08-04T23:50:01.338Z,93742.97
2022-08-04T23:52:30.223Z,93723.88
2022-08-04T23:55:00.797Z,93734.75
2022-08-04T23:58:05.336Z,93728.41
